sensor_id;sensor_type;location;lat;lon;timestamp;P1;durP1;ratioP1;P2;durP2;ratioP2
12567;SDS011;6349;50.904;6.136;2023-07-29T00:01:40;1.50;;;1.27;;
12567;SDS011;6349;50.904;6.136;2023-07-29T00:03:41;2.28;;;1.05;;
12567;SDS011;6349;50.904;6.136;2023-07-29T00:05:41;1.52;;;1.20;;
12567;SDS011;6349;50.904;6.136;2023-07-29T00:07:42;1.10;;;1.10;;
12567;SDS011;6349;50.904;6.136;2023-07-29T00:09:43;1.00;;;1.00;;
12567;SDS011;6349;50.904;6.136;2023-07-29T00:11:43;1.25;;;1.20;;
12567;SDS011;6349;50.904;6.136;2023-07-29T00:13:44;1.20;;;1.15;;
12567;SDS011;6349;50.904;6.136;2023-07-29T00:15:44;1.10;;;1.10;;
12567;SDS011;6349;50.904;6.136;2023-07-29T00:17:45;1.15;;;1.10;;
12567;SDS011;6349;50.904;6.136;2023-07-29T00:19:46;1.20;;;1.20;;
12567;SDS011;6349;50.904;6.136;2023-07-29T00:21:46;2.22;;;1.15;;
12567;SDS011;6349;50.904;6.136;2023-07-29T00:23:47;1.30;;;1.00;;
12567;SDS011;6349;50.904;6.136;2023-07-29T00:25:48;1.60;;;1.25;;
12567;SDS011;6349;50.904;6.136;2023-07-29T00:27:48;1.30;;;1.20;;
12567;SDS011;6349;50.904;6.136;2023-07-29T00:29:49;1.80;;;1.23;;
12567;SDS011;6349;50.904;6.136;2023-07-29T00:31:49;1.30;;;1.10;;
12567;SDS011;6349;50.904;6.136;2023-07-29T00:33:50;1.90;;;1.00;;
12567;SDS011;6349;50.904;6.136;2023-07-29T00:35:54;2.15;;;1.10;;
12567;SDS011;6349;50.904;6.136;2023-07-29T00:37:54;1.58;;;1.17;;
12567;SDS011;6349;50.904;6.136;2023-07-29T00:39:55;2.28;;;1.15;;
12567;SDS011;6349;50.904;6.136;2023-07-29T00:41:56;1.60;;;1.20;;
12567;SDS011;6349;50.904;6.136;2023-07-29T00:43:56;3.40;;;1.10;;
12567;SDS011;6349;50.904;6.136;2023-07-29T00:45:57;1.95;;;1.00;;
12567;SDS011;6349;50.904;6.136;2023-07-29T00:47:58;1.00;;;1.00;;
12567;SDS011;6349;50.904;6.136;2023-07-29T00:49:59;1.40;;;1.00;;
12567;SDS011;6349;50.904;6.136;2023-07-29T00:52:00;2.88;;;1.30;;
12567;SDS011;6349;50.904;6.136;2023-07-29T00:54:01;3.10;;;0.90;;
12567;SDS011;6349;50.904;6.136;2023-07-29T00:56:02;2.95;;;1.10;;
12567;SDS011;6349;50.904;6.136;2023-07-29T00:58:03;1.20;;;1.10;;
12567;SDS011;6349;50.904;6.136;2023-07-29T01:00:04;1.40;;;1.30;;
12567;SDS011;6349;50.904;6.136;2023-07-29T01:02:05;1.30;;;1.20;;
12567;SDS011;6349;50.904;6.136;2023-07-29T01:04:06;1.15;;;1.02;;
12567;SDS011;6349;50.904;6.136;2023-07-29T01:06:18;1.38;;;1.27;;
12567;SDS011;6349;50.904;6.136;2023-07-29T01:08:51;2.10;;;1.35;;
12567;SDS011;6349;50.904;6.136;2023-07-29T01:11:08;2.13;;;1.38;;
12567;SDS011;6349;50.904;6.136;2023-07-29T01:13:24;1.55;;;1.23;;
12567;SDS011;6349;50.904;6.136;2023-07-29T01:15:50;1.75;;;1.00;;
12567;SDS011;6349;50.904;6.136;2023-07-29T01:17:55;1.40;;;0.98;;
12567;SDS011;6349;50.904;6.136;2023-07-29T01:20:15;2.28;;;1.10;;
12567;SDS011;6349;50.904;6.136;2023-07-29T01:22:17;1.20;;;1.02;;
12567;SDS011;6349;50.904;6.136;2023-07-29T01:24:21;1.48;;;1.00;;
12567;SDS011;6349;50.904;6.136;2023-07-29T01:26:21;4.05;;;1.15;;
12567;SDS011;6349;50.904;6.136;2023-07-29T01:28:22;1.52;;;1.20;;
12567;SDS011;6349;50.904;6.136;2023-07-29T01:30:26;2.67;;;1.00;;
12567;SDS011;6349;50.904;6.136;2023-07-29T01:32:48;2.67;;;1.23;;
12567;SDS011;6349;50.904;6.136;2023-07-29T01:34:53;2.00;;;1.05;;
12567;SDS011;6349;50.904;6.136;2023-07-29T01:37:03;1.00;;;0.93;;
12567;SDS011;6349;50.904;6.136;2023-07-29T01:39:09;2.10;;;1.05;;
12567;SDS011;6349;50.904;6.136;2023-07-29T01:41:12;1.25;;;1.20;;
12567;SDS011;6349;50.904;6.136;2023-07-29T01:43:14;1.35;;;1.23;;
12567;SDS011;6349;50.904;6.136;2023-07-29T01:45:14;1.38;;;1.27;;
12567;SDS011;6349;50.904;6.136;2023-07-29T01:47:15;1.80;;;1.10;;
12567;SDS011;6349;50.904;6.136;2023-07-29T01:49:16;1.17;;;1.08;;
12567;SDS011;6349;50.904;6.136;2023-07-29T01:51:17;2.42;;;1.30;;
12567;SDS011;6349;50.904;6.136;2023-07-29T01:53:17;1.80;;;1.35;;
12567;SDS011;6349;50.904;6.136;2023-07-29T01:55:18;3.33;;;1.15;;
12567;SDS011;6349;50.904;6.136;2023-07-29T01:57:18;1.73;;;1.00;;
12567;SDS011;6349;50.904;6.136;2023-07-29T01:59:19;1.95;;;1.35;;
12567;SDS011;6349;50.904;6.136;2023-07-29T02:01:19;1.77;;;1.25;;
12567;SDS011;6349;50.904;6.136;2023-07-29T02:03:20;2.67;;;1.25;;
12567;SDS011;6349;50.904;6.136;2023-07-29T02:05:20;2.47;;;1.23;;
12567;SDS011;6349;50.904;6.136;2023-07-29T02:07:21;1.30;;;1.20;;
12567;SDS011;6349;50.904;6.136;2023-07-29T02:09:22;2.17;;;1.20;;
12567;SDS011;6349;50.904;6.136;2023-07-29T02:11:22;1.42;;;1.33;;
12567;SDS011;6349;50.904;6.136;2023-07-29T02:13:27;2.85;;;1.30;;
12567;SDS011;6349;50.904;6.136;2023-07-29T02:15:27;1.85;;;1.23;;
12567;SDS011;6349;50.904;6.136;2023-07-29T02:17:28;1.50;;;1.40;;
12567;SDS011;6349;50.904;6.136;2023-07-29T02:19:30;2.13;;;1.50;;
12567;SDS011;6349;50.904;6.136;2023-07-29T02:21:30;1.15;;;1.10;;
12567;SDS011;6349;50.904;6.136;2023-07-29T02:23:31;3.33;;;1.40;;
12567;SDS011;6349;50.904;6.136;2023-07-29T02:25:34;6.10;;;1.70;;
12567;SDS011;6349;50.904;6.136;2023-07-29T02:27:36;1.83;;;1.35;;
12567;SDS011;6349;50.904;6.136;2023-07-29T02:29:36;4.18;;;1.70;;
12567;SDS011;6349;50.904;6.136;2023-07-29T02:31:37;3.53;;;1.52;;
12567;SDS011;6349;50.904;6.136;2023-07-29T02:33:38;1.50;;;1.40;;
12567;SDS011;6349;50.904;6.136;2023-07-29T02:35:38;1.95;;;1.40;;
12567;SDS011;6349;50.904;6.136;2023-07-29T02:37:39;1.50;;;1.40;;
12567;SDS011;6349;50.904;6.136;2023-07-29T02:39:39;1.73;;;1.60;;
12567;SDS011;6349;50.904;6.136;2023-07-29T02:41:40;2.65;;;1.60;;
12567;SDS011;6349;50.904;6.136;2023-07-29T02:43:41;1.58;;;1.48;;
12567;SDS011;6349;50.904;6.136;2023-07-29T02:45:48;3.20;;;1.50;;
12567;SDS011;6349;50.904;6.136;2023-07-29T02:47:48;1.75;;;1.48;;
12567;SDS011;6349;50.904;6.136;2023-07-29T02:49:49;1.77;;;1.65;;
12567;SDS011;6349;50.904;6.136;2023-07-29T02:51:50;2.33;;;1.60;;
12567;SDS011;6349;50.904;6.136;2023-07-29T02:53:51;1.73;;;1.60;;
12567;SDS011;6349;50.904;6.136;2023-07-29T02:55:51;3.20;;;1.80;;
12567;SDS011;6349;50.904;6.136;2023-07-29T02:57:52;1.70;;;1.60;;
12567;SDS011;6349;50.904;6.136;2023-07-29T02:59:52;1.80;;;1.60;;
12567;SDS011;6349;50.904;6.136;2023-07-29T03:01:53;2.00;;;1.80;;
12567;SDS011;6349;50.904;6.136;2023-07-29T03:03:53;2.38;;;1.88;;
12567;SDS011;6349;50.904;6.136;2023-07-29T03:06:01;2.13;;;1.85;;
12567;SDS011;6349;50.904;6.136;2023-07-29T03:08:03;2.75;;;2.00;;
12567;SDS011;6349;50.904;6.136;2023-07-29T03:10:04;4.63;;;2.20;;
12567;SDS011;6349;50.904;6.136;2023-07-29T03:12:05;2.58;;;2.08;;
12567;SDS011;6349;50.904;6.136;2023-07-29T03:14:06;2.70;;;2.15;;
12567;SDS011;6349;50.904;6.136;2023-07-29T03:18:11;3.13;;;1.90;;
12567;SDS011;6349;50.904;6.136;2023-07-29T03:20:12;3.13;;;2.30;;
12567;SDS011;6349;50.904;6.136;2023-07-29T03:22:12;2.10;;;1.90;;
12567;SDS011;6349;50.904;6.136;2023-07-29T03:24:13;2.50;;;2.30;;
12567;SDS011;6349;50.904;6.136;2023-07-29T03:26:13;2.40;;;2.20;;
12567;SDS011;6349;50.904;6.136;2023-07-29T03:28:14;2.45;;;2.25;;
12567;SDS011;6349;50.904;6.136;2023-07-29T03:30:15;2.45;;;2.10;;
12567;SDS011;6349;50.904;6.136;2023-07-29T03:32:15;2.55;;;2.35;;
12567;SDS011;6349;50.904;6.136;2023-07-29T03:34:16;2.70;;;2.50;;
12567;SDS011;6349;50.904;6.136;2023-07-29T03:36:16;3.17;;;2.55;;
12567;SDS011;6349;50.904;6.136;2023-07-29T03:38:17;2.50;;;2.30;;
12567;SDS011;6349;50.904;6.136;2023-07-29T03:40:18;2.67;;;2.47;;
12567;SDS011;6349;50.904;6.136;2023-07-29T03:42:18;2.83;;;2.13;;
12567;SDS011;6349;50.904;6.136;2023-07-29T03:44:19;2.22;;;1.88;;
12567;SDS011;6349;50.904;6.136;2023-07-29T03:46:20;2.67;;;1.98;;
12567;SDS011;6349;50.904;6.136;2023-07-29T03:48:22;2.05;;;1.85;;
12567;SDS011;6349;50.904;6.136;2023-07-29T03:50:22;3.03;;;1.80;;
12567;SDS011;6349;50.904;6.136;2023-07-29T03:52:24;2.00;;;1.80;;
12567;SDS011;6349;50.904;6.136;2023-07-29T03:54:24;1.92;;;1.83;;
12567;SDS011;6349;50.904;6.136;2023-07-29T03:56:25;2.88;;;1.80;;
12567;SDS011;6349;50.904;6.136;2023-07-29T03:58:25;3.45;;;1.80;;
12567;SDS011;6349;50.904;6.136;2023-07-29T04:00:26;1.80;;;1.70;;
12567;SDS011;6349;50.904;6.136;2023-07-29T04:02:27;3.08;;;1.88;;
12567;SDS011;6349;50.904;6.136;2023-07-29T04:04:27;1.92;;;1.80;;
12567;SDS011;6349;50.904;6.136;2023-07-29T04:06:28;2.10;;;1.90;;
12567;SDS011;6349;50.904;6.136;2023-07-29T04:08:28;1.67;;;1.58;;
12567;SDS011;6349;50.904;6.136;2023-07-29T04:10:29;1.95;;;1.75;;
12567;SDS011;6349;50.904;6.136;2023-07-29T04:12:31;2.10;;;1.60;;
12567;SDS011;6349;50.904;6.136;2023-07-29T04:14:32;2.13;;;1.73;;
12567;SDS011;6349;50.904;6.136;2023-07-29T04:16:32;1.70;;;1.60;;
12567;SDS011;6349;50.904;6.136;2023-07-29T04:18:33;2.67;;;1.33;;
12567;SDS011;6349;50.904;6.136;2023-07-29T04:20:33;2.35;;;1.42;;
12567;SDS011;6349;50.904;6.136;2023-07-29T04:22:34;2.38;;;1.27;;
12567;SDS011;6349;50.904;6.136;2023-07-29T04:24:35;1.73;;;1.17;;
12567;SDS011;6349;50.904;6.136;2023-07-29T04:26:35;2.15;;;1.30;;
12567;SDS011;6349;50.904;6.136;2023-07-29T04:28:36;1.13;;;1.02;;
12567;SDS011;6349;50.904;6.136;2023-07-29T04:30:37;1.52;;;1.30;;
12567;SDS011;6349;50.904;6.136;2023-07-29T04:32:37;1.80;;;1.50;;
12567;SDS011;6349;50.904;6.136;2023-07-29T04:34:38;1.50;;;1.27;;
12567;SDS011;6349;50.904;6.136;2023-07-29T04:36:38;1.55;;;1.30;;
12567;SDS011;6349;50.904;6.136;2023-07-29T04:38:39;2.25;;;1.35;;
12567;SDS011;6349;50.904;6.136;2023-07-29T04:40:39;1.98;;;1.30;;
12567;SDS011;6349;50.904;6.136;2023-07-29T04:42:40;2.38;;;1.45;;
12567;SDS011;6349;50.904;6.136;2023-07-29T04:44:40;1.95;;;1.40;;
12567;SDS011;6349;50.904;6.136;2023-07-29T04:46:42;1.10;;;1.00;;
12567;SDS011;6349;50.904;6.136;2023-07-29T04:48:42;1.40;;;1.30;;
12567;SDS011;6349;50.904;6.136;2023-07-29T04:50:43;1.40;;;1.30;;
12567;SDS011;6349;50.904;6.136;2023-07-29T04:52:43;1.55;;;1.40;;
12567;SDS011;6349;50.904;6.136;2023-07-29T04:54:44;3.25;;;1.40;;
12567;SDS011;6349;50.904;6.136;2023-07-29T04:56:45;1.27;;;1.10;;
12567;SDS011;6349;50.904;6.136;2023-07-29T04:58:45;2.55;;;1.25;;
12567;SDS011;6349;50.904;6.136;2023-07-29T05:00:46;2.75;;;1.38;;
12567;SDS011;6349;50.904;6.136;2023-07-29T05:02:47;2.38;;;1.23;;
12567;SDS011;6349;50.904;6.136;2023-07-29T05:04:47;1.30;;;1.20;;
12567;SDS011;6349;50.904;6.136;2023-07-29T05:06:48;1.40;;;1.30;;
12567;SDS011;6349;50.904;6.136;2023-07-29T05:08:49;1.55;;;1.35;;
12567;SDS011;6349;50.904;6.136;2023-07-29T05:10:49;1.60;;;1.50;;
12567;SDS011;6349;50.904;6.136;2023-07-29T05:12:51;2.55;;;1.40;;
12567;SDS011;6349;50.904;6.136;2023-07-29T05:14:51;1.88;;;1.40;;
12567;SDS011;6349;50.904;6.136;2023-07-29T05:16:52;1.50;;;1.40;;
12567;SDS011;6349;50.904;6.136;2023-07-29T05:18:53;1.42;;;1.33;;
12567;SDS011;6349;50.904;6.136;2023-07-29T05:20:53;1.60;;;1.40;;
12567;SDS011;6349;50.904;6.136;2023-07-29T05:22:54;3.88;;;1.40;;
12567;SDS011;6349;50.904;6.136;2023-07-29T05:24:54;1.80;;;1.42;;
12567;SDS011;6349;50.904;6.136;2023-07-29T05:26:55;1.90;;;1.30;;
12567;SDS011;6349;50.904;6.136;2023-07-29T05:28:55;2.75;;;1.60;;
12567;SDS011;6349;50.904;6.136;2023-07-29T05:30:56;2.70;;;1.85;;
12567;SDS011;6349;50.904;6.136;2023-07-29T05:32:57;2.40;;;1.60;;
12567;SDS011;6349;50.904;6.136;2023-07-29T05:34:58;1.80;;;1.35;;
12567;SDS011;6349;50.904;6.136;2023-07-29T05:36:58;2.47;;;1.38;;
12567;SDS011;6349;50.904;6.136;2023-07-29T05:38:59;2.45;;;1.65;;
12567;SDS011;6349;50.904;6.136;2023-07-29T05:40:59;1.58;;;1.48;;
12567;SDS011;6349;50.904;6.136;2023-07-29T05:43:00;3.38;;;1.63;;
12567;SDS011;6349;50.904;6.136;2023-07-29T05:45:03;1.90;;;1.70;;
12567;SDS011;6349;50.904;6.136;2023-07-29T05:47:04;2.13;;;1.80;;
12567;SDS011;6349;50.904;6.136;2023-07-29T05:49:04;2.78;;;1.70;;
12567;SDS011;6349;50.904;6.136;2023-07-29T05:51:05;2.50;;;1.55;;
12567;SDS011;6349;50.904;6.136;2023-07-29T05:53:05;1.67;;;1.58;;
12567;SDS011;6349;50.904;6.136;2023-07-29T05:55:06;2.75;;;1.92;;
12567;SDS011;6349;50.904;6.136;2023-07-29T05:57:07;1.75;;;1.58;;
12567;SDS011;6349;50.904;6.136;2023-07-29T05:59:07;3.60;;;1.70;;
12567;SDS011;6349;50.904;6.136;2023-07-29T06:01:08;2.80;;;1.50;;
12567;SDS011;6349;50.904;6.136;2023-07-29T06:03:09;1.50;;;1.40;;
12567;SDS011;6349;50.904;6.136;2023-07-29T06:05:09;2.65;;;1.80;;
12567;SDS011;6349;50.904;6.136;2023-07-29T06:07:10;3.17;;;1.90;;
12567;SDS011;6349;50.904;6.136;2023-07-29T06:09:10;3.50;;;1.65;;
12567;SDS011;6349;50.904;6.136;2023-07-29T06:11:11;2.55;;;1.75;;
12567;SDS011;6349;50.904;6.136;2023-07-29T06:13:11;2.22;;;1.90;;
12567;SDS011;6349;50.904;6.136;2023-07-29T06:15:12;2.92;;;1.85;;
12567;SDS011;6349;50.904;6.136;2023-07-29T06:17:13;4.22;;;2.08;;
12567;SDS011;6349;50.904;6.136;2023-07-29T06:19:14;2.10;;;1.90;;
12567;SDS011;6349;50.904;6.136;2023-07-29T06:21:14;2.10;;;1.90;;
12567;SDS011;6349;50.904;6.136;2023-07-29T06:23:17;2.42;;;2.22;;
12567;SDS011;6349;50.904;6.136;2023-07-29T06:25:17;2.50;;;1.73;;
12567;SDS011;6349;50.904;6.136;2023-07-29T06:27:18;2.10;;;1.77;;
12567;SDS011;6349;50.904;6.136;2023-07-29T06:29:18;2.33;;;1.90;;
12567;SDS011;6349;50.904;6.136;2023-07-29T06:31:19;1.63;;;1.50;;
12567;SDS011;6349;50.904;6.136;2023-07-29T06:33:19;1.60;;;1.50;;
12567;SDS011;6349;50.904;6.136;2023-07-29T06:35:20;1.67;;;1.58;;
12567;SDS011;6349;50.904;6.136;2023-07-29T06:37:20;1.92;;;1.83;;
12567;SDS011;6349;50.904;6.136;2023-07-29T06:39:23;3.85;;;1.50;;
12567;SDS011;6349;50.904;6.136;2023-07-29T06:41:24;2.28;;;1.58;;
12567;SDS011;6349;50.904;6.136;2023-07-29T06:43:25;2.08;;;1.50;;
12567;SDS011;6349;50.904;6.136;2023-07-29T06:45:26;2.88;;;1.75;;
12567;SDS011;6349;50.904;6.136;2023-07-29T06:47:27;2.28;;;1.40;;
12567;SDS011;6349;50.904;6.136;2023-07-29T06:49:28;1.40;;;1.30;;
12567;SDS011;6349;50.904;6.136;2023-07-29T06:51:28;1.67;;;1.30;;
12567;SDS011;6349;50.904;6.136;2023-07-29T06:53:33;1.45;;;1.30;;
12567;SDS011;6349;50.904;6.136;2023-07-29T06:55:34;2.80;;;1.40;;
12567;SDS011;6349;50.904;6.136;2023-07-29T06:57:35;1.80;;;1.50;;
12567;SDS011;6349;50.904;6.136;2023-07-29T06:59:37;2.85;;;1.50;;
12567;SDS011;6349;50.904;6.136;2023-07-29T07:01:39;2.70;;;1.60;;
12567;SDS011;6349;50.904;6.136;2023-07-29T07:03:41;3.85;;;1.50;;
12567;SDS011;6349;50.904;6.136;2023-07-29T07:05:42;2.60;;;1.50;;
12567;SDS011;6349;50.904;6.136;2023-07-29T07:07:43;1.65;;;1.55;;
12567;SDS011;6349;50.904;6.136;2023-07-29T07:09:45;2.65;;;1.45;;
12567;SDS011;6349;50.904;6.136;2023-07-29T07:11:47;1.83;;;1.30;;
12567;SDS011;6349;50.904;6.136;2023-07-29T07:13:49;3.72;;;1.42;;
12567;SDS011;6349;50.904;6.136;2023-07-29T07:15:51;1.98;;;1.48;;
12567;SDS011;6349;50.904;6.136;2023-07-29T07:17:55;3.83;;;1.42;;
12567;SDS011;6349;50.904;6.136;2023-07-29T07:19:55;2.28;;;1.10;;
12567;SDS011;6349;50.904;6.136;2023-07-29T07:21:56;1.60;;;1.50;;
12567;SDS011;6349;50.904;6.136;2023-07-29T07:23:58;1.85;;;1.55;;
12567;SDS011;6349;50.904;6.136;2023-07-29T07:25:58;1.50;;;1.40;;
12567;SDS011;6349;50.904;6.136;2023-07-29T07:28:00;1.73;;;1.48;;
12567;SDS011;6349;50.904;6.136;2023-07-29T07:30:00;2.45;;;1.63;;
12567;SDS011;6349;50.904;6.136;2023-07-29T07:32:01;2.50;;;1.35;;
12567;SDS011;6349;50.904;6.136;2023-07-29T07:34:02;2.80;;;1.58;;
12567;SDS011;6349;50.904;6.136;2023-07-29T07:36:03;2.50;;;1.50;;
12567;SDS011;6349;50.904;6.136;2023-07-29T07:38:03;3.08;;;1.40;;
12567;SDS011;6349;50.904;6.136;2023-07-29T07:40:06;2.40;;;1.50;;
12567;SDS011;6349;50.904;6.136;2023-07-29T07:42:07;1.60;;;1.42;;
12567;SDS011;6349;50.904;6.136;2023-07-29T07:44:08;2.33;;;1.40;;
12567;SDS011;6349;50.904;6.136;2023-07-29T07:46:08;1.25;;;1.10;;
12567;SDS011;6349;50.904;6.136;2023-07-29T07:48:09;2.67;;;1.30;;
12567;SDS011;6349;50.904;6.136;2023-07-29T07:50:11;1.30;;;1.20;;
12567;SDS011;6349;50.904;6.136;2023-07-29T07:52:15;1.38;;;1.27;;
12567;SDS011;6349;50.904;6.136;2023-07-29T07:54:17;1.23;;;1.13;;
12567;SDS011;6349;50.904;6.136;2023-07-29T07:56:18;1.65;;;1.30;;
12567;SDS011;6349;50.904;6.136;2023-07-29T07:58:18;1.30;;;1.20;;
12567;SDS011;6349;50.904;6.136;2023-07-29T08:00:19;1.30;;;1.20;;
12567;SDS011;6349;50.904;6.136;2023-07-29T08:02:20;1.48;;;1.27;;
12567;SDS011;6349;50.904;6.136;2023-07-29T08:04:20;1.30;;;1.20;;
12567;SDS011;6349;50.904;6.136;2023-07-29T08:06:22;1.65;;;1.30;;
12567;SDS011;6349;50.904;6.136;2023-07-29T08:08:25;2.72;;;1.40;;
12567;SDS011;6349;50.904;6.136;2023-07-29T08:10:27;1.35;;;1.25;;
12567;SDS011;6349;50.904;6.136;2023-07-29T08:12:28;1.45;;;1.35;;
12567;SDS011;6349;50.904;6.136;2023-07-29T08:14:28;1.65;;;1.20;;
12567;SDS011;6349;50.904;6.136;2023-07-29T08:16:30;1.30;;;1.20;;
12567;SDS011;6349;50.904;6.136;2023-07-29T08:18:32;1.33;;;1.20;;
12567;SDS011;6349;50.904;6.136;2023-07-29T08:20:33;2.25;;;1.30;;
12567;SDS011;6349;50.904;6.136;2023-07-29T08:22:34;2.05;;;1.20;;
12567;SDS011;6349;50.904;6.136;2023-07-29T08:24:36;1.50;;;1.40;;
12567;SDS011;6349;50.904;6.136;2023-07-29T08:26:37;3.85;;;1.48;;
12567;SDS011;6349;50.904;6.136;2023-07-29T08:28:38;1.38;;;1.15;;
12567;SDS011;6349;50.904;6.136;2023-07-29T08:30:39;2.13;;;1.15;;
12567;SDS011;6349;50.904;6.136;2023-07-29T08:32:41;1.45;;;1.35;;
12567;SDS011;6349;50.904;6.136;2023-07-29T08:34:43;1.75;;;1.33;;
12567;SDS011;6349;50.904;6.136;2023-07-29T08:36:46;1.42;;;1.27;;
12567;SDS011;6349;50.904;6.136;2023-07-29T08:38:47;1.67;;;1.10;;
12567;SDS011;6349;50.904;6.136;2023-07-29T08:43:37;1.48;;;1.20;;
12567;SDS011;6349;50.904;6.136;2023-07-29T08:45:39;1.40;;;1.20;;
12567;SDS011;6349;50.904;6.136;2023-07-29T08:47:40;1.17;;;1.08;;
12567;SDS011;6349;50.904;6.136;2023-07-29T08:49:44;1.50;;;1.38;;
12567;SDS011;6349;50.904;6.136;2023-07-29T08:51:48;1.33;;;1.10;;
12567;SDS011;6349;50.904;6.136;2023-07-29T08:53:51;1.17;;;1.08;;
12567;SDS011;6349;50.904;6.136;2023-07-29T08:55:53;1.23;;;1.13;;
12567;SDS011;6349;50.904;6.136;2023-07-29T08:57:58;1.95;;;1.30;;
12567;SDS011;6349;50.904;6.136;2023-07-29T09:00:01;1.92;;;1.20;;
12567;SDS011;6349;50.904;6.136;2023-07-29T09:02:04;1.83;;;1.10;;
12567;SDS011;6349;50.904;6.136;2023-07-29T09:04:07;1.00;;;0.90;;
12567;SDS011;6349;50.904;6.136;2023-07-29T09:06:08;1.30;;;1.08;;
12567;SDS011;6349;50.904;6.136;2023-07-29T09:08:11;1.20;;;1.10;;
12567;SDS011;6349;50.904;6.136;2023-07-29T09:10:13;1.83;;;1.17;;
12567;SDS011;6349;50.904;6.136;2023-07-29T09:12:14;1.52;;;1.20;;
12567;SDS011;6349;50.904;6.136;2023-07-29T09:14:18;1.30;;;1.20;;
12567;SDS011;6349;50.904;6.136;2023-07-29T09:16:20;1.33;;;1.10;;
12567;SDS011;6349;50.904;6.136;2023-07-29T09:18:23;1.45;;;1.15;;
12567;SDS011;6349;50.904;6.136;2023-07-29T09:20:36;1.35;;;1.20;;
12567;SDS011;6349;50.904;6.136;2023-07-29T09:22:37;1.80;;;1.40;;
12567;SDS011;6349;50.904;6.136;2023-07-29T09:24:39;1.40;;;1.20;;
12567;SDS011;6349;50.904;6.136;2023-07-29T09:26:41;1.90;;;1.40;;
12567;SDS011;6349;50.904;6.136;2023-07-29T09:28:51;1.58;;;1.13;;
12567;SDS011;6349;50.904;6.136;2023-07-29T09:30:53;2.03;;;1.20;;
12567;SDS011;6349;50.904;6.136;2023-07-29T09:32:58;1.17;;;1.10;;
12567;SDS011;6349;50.904;6.136;2023-07-29T09:34:59;1.15;;;1.05;;
12567;SDS011;6349;50.904;6.136;2023-07-29T09:36:59;1.17;;;1.08;;
12567;SDS011;6349;50.904;6.136;2023-07-29T09:39:00;1.33;;;1.23;;
12567;SDS011;6349;50.904;6.136;2023-07-29T09:41:03;1.70;;;1.27;;
12567;SDS011;6349;50.904;6.136;2023-07-29T09:43:04;2.10;;;1.40;;
12567;SDS011;6349;50.904;6.136;2023-07-29T09:45:06;1.00;;;1.00;;
12567;SDS011;6349;50.904;6.136;2023-07-29T09:47:08;2.10;;;1.25;;
12567;SDS011;6349;50.904;6.136;2023-07-29T09:49:09;2.28;;;1.38;;
12567;SDS011;6349;50.904;6.136;2023-07-29T09:51:11;1.20;;;1.10;;
12567;SDS011;6349;50.904;6.136;2023-07-29T09:53:16;1.63;;;1.50;;
12567;SDS011;6349;50.904;6.136;2023-07-29T09:55:18;2.33;;;1.30;;
12567;SDS011;6349;50.904;6.136;2023-07-29T09:57:21;3.05;;;1.40;;
12567;SDS011;6349;50.904;6.136;2023-07-29T09:59:23;1.30;;;1.20;;
12567;SDS011;6349;50.904;6.136;2023-07-29T10:01:25;3.47;;;1.65;;
12567;SDS011;6349;50.904;6.136;2023-07-29T10:03:25;1.45;;;1.30;;
12567;SDS011;6349;50.904;6.136;2023-07-29T10:05:27;1.40;;;1.30;;
12567;SDS011;6349;50.904;6.136;2023-07-29T10:07:30;1.40;;;1.30;;
12567;SDS011;6349;50.904;6.136;2023-07-29T10:09:31;1.50;;;1.25;;
12567;SDS011;6349;50.904;6.136;2023-07-29T10:11:33;1.20;;;1.10;;
12567;SDS011;6349;50.904;6.136;2023-07-29T10:13:36;1.08;;;1.05;;
12567;SDS011;6349;50.904;6.136;2023-07-29T10:15:39;1.48;;;1.23;;
12567;SDS011;6349;50.904;6.136;2023-07-29T10:17:40;1.40;;;1.30;;
12567;SDS011;6349;50.904;6.136;2023-07-29T10:19:43;1.92;;;1.17;;
12567;SDS011;6349;50.904;6.136;2023-07-29T10:21:45;1.60;;;1.30;;
12567;SDS011;6349;50.904;6.136;2023-07-29T10:23:49;2.75;;;1.30;;
12567;SDS011;6349;50.904;6.136;2023-07-29T10:26:02;1.20;;;1.10;;
12567;SDS011;6349;50.904;6.136;2023-07-29T10:28:08;1.40;;;1.30;;
12567;SDS011;6349;50.904;6.136;2023-07-29T10:30:11;2.10;;;1.38;;
12567;SDS011;6349;50.904;6.136;2023-07-29T10:32:16;1.58;;;1.23;;
12567;SDS011;6349;50.904;6.136;2023-07-29T10:34:18;1.83;;;1.30;;
12567;SDS011;6349;50.904;6.136;2023-07-29T10:36:22;1.55;;;1.17;;
12567;SDS011;6349;50.904;6.136;2023-07-29T10:38:24;1.35;;;1.20;;
12567;SDS011;6349;50.904;6.136;2023-07-29T10:40:42;1.13;;;1.05;;
12567;SDS011;6349;50.904;6.136;2023-07-29T10:43:10;1.75;;;1.30;;
12567;SDS011;6349;50.904;6.136;2023-07-29T10:45:18;1.58;;;1.20;;
12567;SDS011;6349;50.904;6.136;2023-07-29T10:47:27;1.30;;;1.20;;
12567;SDS011;6349;50.904;6.136;2023-07-29T10:49:30;1.55;;;1.20;;
12567;SDS011;6349;50.904;6.136;2023-07-29T10:51:37;2.08;;;1.20;;
12567;SDS011;6349;50.904;6.136;2023-07-29T10:53:37;1.50;;;1.40;;
12567;SDS011;6349;50.904;6.136;2023-07-29T10:55:39;1.40;;;1.30;;
12567;SDS011;6349;50.904;6.136;2023-07-29T10:57:43;1.17;;;1.15;;
12567;SDS011;6349;50.904;6.136;2023-07-29T10:59:54;1.38;;;1.27;;
12567;SDS011;6349;50.904;6.136;2023-07-29T11:01:58;1.30;;;1.20;;
12567;SDS011;6349;50.904;6.136;2023-07-29T11:04:01;1.92;;;1.30;;
12567;SDS011;6349;50.904;6.136;2023-07-29T11:06:20;3.92;;;1.30;;
12567;SDS011;6349;50.904;6.136;2023-07-29T11:08:22;1.30;;;1.20;;
12567;SDS011;6349;50.904;6.136;2023-07-29T11:10:28;1.35;;;1.25;;
12567;SDS011;6349;50.904;6.136;2023-07-29T11:12:38;1.83;;;1.50;;
12567;SDS011;6349;50.904;6.136;2023-07-29T11:14:48;1.85;;;1.42;;
12567;SDS011;6349;50.904;6.136;2023-07-29T11:16:50;1.63;;;1.35;;
12567;SDS011;6349;50.904;6.136;2023-07-29T11:18:52;1.85;;;1.30;;
12567;SDS011;6349;50.904;6.136;2023-07-29T11:20:53;1.50;;;1.35;;
12567;SDS011;6349;50.904;6.136;2023-07-29T11:22:54;2.40;;;1.40;;
12567;SDS011;6349;50.904;6.136;2023-07-29T11:24:57;3.10;;;1.60;;
12567;SDS011;6349;50.904;6.136;2023-07-29T11:26:58;4.20;;;1.70;;
12567;SDS011;6349;50.904;6.136;2023-07-29T11:29:00;1.90;;;1.70;;
12567;SDS011;6349;50.904;6.136;2023-07-29T11:31:01;1.95;;;1.75;;
12567;SDS011;6349;50.904;6.136;2023-07-29T11:33:02;1.52;;;1.42;;
12567;SDS011;6349;50.904;6.136;2023-07-29T11:35:13;2.60;;;1.52;;
12567;SDS011;6349;50.904;6.136;2023-07-29T11:37:19;1.30;;;1.20;;
12567;SDS011;6349;50.904;6.136;2023-07-29T11:39:22;1.35;;;1.30;;
12567;SDS011;6349;50.904;6.136;2023-07-29T11:41:24;1.40;;;1.30;;
12567;SDS011;6349;50.904;6.136;2023-07-29T11:43:25;1.30;;;1.20;;
12567;SDS011;6349;50.904;6.136;2023-07-29T11:45:28;1.40;;;1.30;;
12567;SDS011;6349;50.904;6.136;2023-07-29T11:47:30;1.42;;;1.30;;
12567;SDS011;6349;50.904;6.136;2023-07-29T11:49:33;1.58;;;1.20;;
12567;SDS011;6349;50.904;6.136;2023-07-29T11:51:34;1.45;;;1.20;;
12567;SDS011;6349;50.904;6.136;2023-07-29T11:53:36;1.50;;;1.40;;
12567;SDS011;6349;50.904;6.136;2023-07-29T11:55:38;1.60;;;1.30;;
12567;SDS011;6349;50.904;6.136;2023-07-29T11:57:40;1.40;;;1.30;;
12567;SDS011;6349;50.904;6.136;2023-07-29T11:59:43;1.48;;;1.38;;
12567;SDS011;6349;50.904;6.136;2023-07-29T12:01:44;1.83;;;1.40;;
12567;SDS011;6349;50.904;6.136;2023-07-29T12:03:47;1.50;;;1.40;;
12567;SDS011;6349;50.904;6.136;2023-07-29T12:05:50;1.40;;;1.20;;
12567;SDS011;6349;50.904;6.136;2023-07-29T12:07:51;1.50;;;1.40;;
12567;SDS011;6349;50.904;6.136;2023-07-29T12:09:53;1.65;;;1.55;;
12567;SDS011;6349;50.904;6.136;2023-07-29T12:11:56;2.55;;;1.40;;
12567;SDS011;6349;50.904;6.136;2023-07-29T12:13:59;1.70;;;1.42;;
12567;SDS011;6349;50.904;6.136;2023-07-29T12:16:02;1.50;;;1.40;;
12567;SDS011;6349;50.904;6.136;2023-07-29T12:18:04;1.83;;;1.50;;
12567;SDS011;6349;50.904;6.136;2023-07-29T12:20:07;1.90;;;1.48;;
12567;SDS011;6349;50.904;6.136;2023-07-29T12:22:09;1.50;;;1.40;;
12567;SDS011;6349;50.904;6.136;2023-07-29T12:24:13;1.67;;;1.48;;
12567;SDS011;6349;50.904;6.136;2023-07-29T12:26:14;1.65;;;1.50;;
12567;SDS011;6349;50.904;6.136;2023-07-29T12:28:14;1.63;;;1.42;;
12567;SDS011;6349;50.904;6.136;2023-07-29T12:30:15;1.42;;;1.33;;
12567;SDS011;6349;50.904;6.136;2023-07-29T12:32:18;1.80;;;1.52;;